CheckWX is a tool to help pilots better visualize weather data.  It is not intended as a substitute for an official pre-flight weather briefing.

06:43:52 UTC

LICR TAF
Reggio Calabria Airport
Reggio Calabria, Italy
TAF LICR 160500Z 1606/1706 35018KT CAVOK BECMG 1618/1620 VRB06KT

Jun-16@
06:00 UTC

Jun-16 @ 06:00 UTC

Jun-16@
18:00 UTC

Jun-16 @ 18:00 UTC

TAF LICR 160500Z 1606/1706 35018KT CAVOK
Wind
  • 350° at 18 KTS
Conditions
No significant weather
Cloud Levels
  • No significant clouds

Jun-16@
18:00 UTC

Jun-16 @ 18:00 UTC

Jun-17@
06:00 UTC

Jun-17 @ 06:00 UTC

BECMG 1618/1620 VRB06KT

Becoming

Becoming Conditions expected by Sun, Jun 16, 2019 @ 20:00 UTC

Wind
  • Variable at 6 KTS
Conditions
No significant weather
Cloud Levels
  • No significant clouds